createdAt,value
2017-12-10T00:01:12.462Z,79.00
2017-12-10T00:03:40.749Z,79.30
2017-12-10T00:06:09.093Z,79.20
2017-12-10T00:08:37.371Z,79.10
2017-12-10T00:11:05.660Z,80.10
2017-12-10T00:13:33.959Z,79.00
2017-12-10T00:16:02.248Z,79.10
2017-12-10T00:18:30.556Z,79.20
2017-12-10T00:20:58.836Z,79.40
2017-12-10T00:23:27.159Z,79.30
2017-12-10T00:25:55.440Z,79.40
2017-12-10T00:28:23.724Z,79.50
2017-12-10T00:30:52.052Z,79.50
2017-12-10T00:33:20.332Z,79.80
2017-12-10T00:35:49.104Z,79.80
2017-12-10T00:38:17.393Z,80.20
2017-12-10T00:40:45.708Z,80.30
2017-12-10T00:43:14.000Z,80.40
2017-12-10T00:45:42.281Z,80.40
2017-12-10T00:48:10.600Z,80.30
2017-12-10T00:50:38.885Z,80.50
2017-12-10T00:53:07.194Z,80.60
2017-12-10T00:55:35.471Z,80.60
2017-12-10T00:58:03.809Z,80.60
2017-12-10T01:00:32.084Z,80.50
2017-12-10T01:03:00.392Z,80.70
2017-12-10T01:05:28.700Z,80.70
2017-12-10T01:07:56.979Z,80.60
2017-12-10T01:10:25.276Z,80.60
2017-12-10T01:12:53.561Z,80.60
2017-12-10T01:15:21.872Z,80.70
2017-12-10T01:17:50.166Z,80.60
2017-12-10T01:20:18.477Z,80.70
2017-12-10T01:22:46.754Z,80.90
2017-12-10T01:25:15.040Z,81.10
2017-12-10T01:27:43.348Z,81.50
2017-12-10T01:30:11.631Z,82.00
2017-12-10T01:32:39.937Z,81.30
2017-12-10T01:35:08.234Z,81.30
2017-12-10T01:37:36.545Z,81.40
2017-12-10T01:40:04.824Z,81.40
2017-12-10T01:42:33.155Z,81.50
2017-12-10T01:45:01.440Z,81.10
2017-12-10T01:47:29.735Z,81.10
2017-12-10T01:49:58.044Z,81.40
2017-12-10T01:52:26.328Z,81.40
2017-12-10T01:54:54.627Z,81.20
2017-12-10T01:57:22.916Z,81.30
2017-12-10T01:59:51.224Z,81.10
2017-12-10T02:02:19.503Z,81.30
2017-12-10T02:04:47.781Z,81.30
2017-12-10T02:07:16.088Z,81.30
2017-12-10T02:09:44.373Z,81.30
2017-12-10T02:12:12.679Z,81.40
2017-12-10T02:14:40.956Z,81.60
2017-12-10T02:17:09.280Z,81.70
2017-12-10T02:19:37.563Z,81.60
2017-12-10T02:22:05.843Z,81.70
2017-12-10T02:24:34.144Z,81.60
2017-12-10T02:27:02.424Z,81.70
2017-12-10T02:29:30.719Z,81.60
2017-12-10T02:31:59.000Z,81.50
2017-12-10T02:34:27.324Z,81.60
2017-12-10T02:36:55.613Z,81.70
2017-12-10T02:39:23.888Z,81.50
2017-12-10T02:41:52.197Z,81.70
2017-12-10T02:44:20.493Z,81.80
2017-12-10T02:46:48.804Z,81.80
2017-12-10T02:49:17.096Z,81.80
2017-12-10T02:51:45.413Z,82.00
2017-12-10T02:54:13.704Z,82.10
2017-12-10T02:56:41.988Z,82.20
2017-12-10T02:59:10.293Z,82.20
2017-12-10T03:01:38.590Z,82.70
2017-12-10T03:04:06.896Z,82.70
2017-12-10T03:06:35.173Z,82.00
2017-12-10T03:09:03.501Z,82.00
2017-12-10T03:11:31.781Z,82.10
2017-12-10T03:14:00.064Z,81.70
2017-12-10T03:16:28.358Z,81.40
2017-12-10T03:18:56.637Z,81.80
2017-12-10T03:21:25.856Z,81.80
2017-12-10T03:23:54.149Z,81.60
2017-12-10T03:26:22.464Z,81.80
2017-12-10T03:28:50.743Z,81.80
2017-12-10T03:31:19.030Z,81.90
2017-12-10T03:33:47.348Z,82.10
2017-12-10T03:36:15.625Z,82.20
2017-12-10T03:38:43.932Z,82.40
2017-12-10T03:41:12.221Z,82.80
2017-12-10T03:43:40.540Z,82.40
2017-12-10T03:46:08.820Z,82.60
2017-12-10T03:48:37.103Z,82.80
2017-12-10T03:51:05.420Z,82.70
2017-12-10T03:53:33.712Z,82.80
2017-12-10T03:56:02.067Z,82.90
2017-12-10T03:58:30.316Z,83.00
2017-12-10T04:00:58.648Z,83.00
2017-12-10T04:03:26.951Z,83.20
2017-12-10T04:05:55.249Z,83.20
2017-12-10T04:08:23.552Z,83.20
2017-12-10T04:10:51.841Z,83.40
2017-12-10T04:13:20.162Z,83.50
2017-12-10T04:15:48.474Z,83.70
2017-12-10T04:18:16.761Z,83.90
2017-12-10T04:20:45.069Z,83.90
2017-12-10T04:23:13.356Z,84.10
2017-12-10T04:25:41.675Z,84.20
2017-12-10T04:28:09.956Z,84.10
2017-12-10T04:30:38.253Z,84.20
2017-12-10T04:33:06.564Z,84.40
2017-12-10T04:35:34.868Z,84.40
2017-12-10T04:38:03.183Z,84.50
2017-12-10T04:40:31.463Z,84.60
2017-12-10T04:42:59.750Z,84.60
2017-12-10T04:45:28.051Z,84.60
2017-12-10T04:47:56.327Z,84.70
2017-12-10T04:50:24.654Z,84.80
2017-12-10T04:52:52.941Z,84.90
2017-12-10T04:55:21.248Z,85.00
2017-12-10T04:57:49.534Z,85.10
2017-12-10T05:00:17.852Z,85.30
2017-12-10T05:02:46.135Z,85.30
2017-12-10T05:05:13.648Z,85.30
2017-12-10T05:07:41.943Z,85.10
2017-12-10T05:10:10.230Z,85.00
2017-12-10T05:12:38.527Z,85.10
2017-12-10T05:15:06.802Z,85.10
2017-12-10T05:17:35.120Z,84.90
2017-12-10T05:20:03.406Z,84.80
2017-12-10T05:22:31.716Z,84.70
2017-12-10T05:25:00.006Z,85.50
2017-12-10T05:27:28.288Z,84.60
2017-12-10T05:29:56.593Z,84.50
2017-12-10T05:32:24.872Z,84.40
2017-12-10T05:34:53.175Z,84.00
2017-12-10T05:37:21.453Z,83.80
2017-12-10T05:39:49.764Z,83.40
2017-12-10T05:42:18.047Z,84.00
2017-12-10T05:44:46.323Z,84.00
2017-12-10T05:47:14.624Z,83.80
2017-12-10T05:49:42.905Z,83.80
2017-12-10T05:52:11.220Z,83.70
2017-12-10T05:54:39.496Z,83.60
2017-12-10T05:57:07.776Z,83.70
2017-12-10T05:59:36.076Z,83.60
2017-12-10T06:02:04.386Z,83.40
2017-12-10T06:04:32.694Z,83.50
2017-12-10T06:07:00.971Z,83.10
2017-12-10T06:09:29.252Z,83.20
2017-12-10T06:11:57.556Z,82.90
2017-12-10T06:14:25.840Z,83.00
2017-12-10T06:16:54.138Z,82.90
2017-12-10T06:19:22.417Z,83.00
2017-12-10T06:21:50.731Z,82.70
2017-12-10T06:24:19.020Z,82.70
2017-12-10T06:26:47.304Z,82.70
2017-12-10T06:29:15.608Z,82.70
2017-12-10T06:31:43.901Z,82.80
2017-12-10T06:34:12.207Z,82.90
2017-12-10T06:36:40.487Z,82.90
2017-12-10T06:39:08.808Z,82.90
2017-12-10T06:41:37.092Z,82.80
2017-12-10T06:44:05.367Z,82.80
2017-12-10T06:46:33.668Z,82.80
2017-12-10T06:49:01.957Z,82.50
2017-12-10T06:51:30.264Z,82.40
2017-12-10T06:53:58.552Z,82.30
2017-12-10T06:56:26.860Z,82.00
2017-12-10T06:58:55.140Z,81.70
2017-12-10T07:01:23.419Z,81.60
2017-12-10T07:03:51.727Z,81.60
2017-12-10T07:06:20.020Z,81.60
2017-12-10T07:08:48.329Z,82.50
2017-12-10T07:11:16.615Z,81.60
2017-12-10T07:13:44.924Z,81.70
2017-12-10T07:16:13.200Z,82.60
2017-12-10T07:18:41.481Z,81.90
2017-12-10T07:21:09.781Z,81.90
2017-12-10T07:23:38.064Z,81.70
2017-12-10T07:26:06.364Z,81.60
2017-12-10T07:28:34.652Z,81.50
2017-12-10T07:31:02.969Z,81.20
2017-12-10T07:33:31.250Z,81.00
2017-12-10T07:35:59.532Z,80.80
2017-12-10T07:38:27.841Z,80.40
2017-12-10T07:40:56.120Z,80.20
2017-12-10T07:43:24.427Z,79.90
2017-12-10T07:45:52.704Z,79.80
2017-12-10T07:48:21.020Z,80.00
2017-12-10T07:50:49.299Z,80.70
2017-12-10T07:53:17.608Z,79.60
2017-12-10T07:55:45.903Z,79.50
2017-12-10T07:58:14.183Z,79.30
2017-12-10T08:00:42.478Z,79.50
2017-12-10T08:03:10.757Z,79.40
2017-12-10T08:05:39.068Z,79.00
2017-12-10T08:08:07.348Z,79.00
2017-12-10T08:10:35.624Z,78.70
2017-12-10T08:13:03.930Z,78.30
2017-12-10T08:15:32.208Z,78.40
2017-12-10T08:18:00.508Z,78.80
2017-12-10T08:20:28.792Z,78.90
2017-12-10T08:22:57.100Z,79.10
2017-12-10T08:25:25.379Z,79.20
2017-12-10T08:27:53.695Z,79.50
2017-12-10T08:30:21.988Z,79.40
2017-12-10T08:32:50.280Z,79.30
2017-12-10T08:35:18.634Z,78.90
2017-12-10T08:37:46.924Z,78.30
2017-12-10T08:40:15.224Z,78.40
2017-12-10T08:42:43.499Z,78.50
2017-12-10T08:45:11.800Z,78.60
2017-12-10T08:47:40.080Z,78.60
2017-12-10T08:50:08.403Z,78.70
2017-12-10T08:52:36.687Z,78.80
2017-12-10T08:55:04.973Z,79.00
2017-12-10T08:57:33.280Z,79.40
2017-12-10T09:00:01.565Z,79.60
2017-12-10T09:02:29.876Z,79.90
2017-12-10T09:04:58.160Z,80.00
2017-12-10T09:07:26.467Z,80.30
2017-12-10T09:09:54.760Z,80.00
2017-12-10T09:12:23.048Z,80.40
2017-12-10T09:14:51.354Z,80.60
2017-12-10T09:17:19.644Z,81.00
2017-12-10T09:19:48.296Z,81.30
2017-12-10T09:22:16.596Z,82.20
2017-12-10T09:24:44.925Z,81.60
2017-12-10T09:27:13.216Z,81.70
2017-12-10T09:29:41.491Z,81.60
2017-12-10T09:32:09.788Z,81.80
2017-12-10T09:34:38.080Z,82.10
2017-12-10T09:37:06.388Z,81.80
2017-12-10T09:39:34.663Z,81.90
2017-12-10T09:42:02.999Z,82.10
2017-12-10T09:44:31.291Z,82.20
2017-12-10T09:46:59.576Z,81.60
2017-12-10T09:49:27.871Z,81.80
2017-12-10T09:51:56.147Z,82.20
2017-12-10T09:54:24.447Z,81.70
2017-12-10T09:56:52.738Z,82.20
2017-12-10T09:59:21.060Z,81.50
2017-12-10T10:01:49.344Z,81.60
2017-12-10T10:04:17.644Z,82.10
2017-12-10T10:06:45.947Z,82.30
2017-12-10T10:09:14.223Z,82.30
2017-12-10T10:11:42.536Z,82.20
2017-12-10T10:14:10.824Z,81.90
2017-12-10T10:16:39.104Z,81.70
2017-12-10T10:19:07.411Z,81.30
2017-12-10T10:21:35.704Z,80.80
2017-12-10T10:24:04.024Z,80.60
2017-12-10T10:26:32.299Z,80.50
2017-12-10T10:29:00.576Z,80.60
2017-12-10T10:31:28.886Z,81.30
2017-12-10T10:33:57.169Z,81.10
2017-12-10T10:36:25.486Z,81.30
2017-12-10T10:38:53.783Z,81.90
2017-12-10T10:41:21.304Z,81.90
2017-12-10T10:43:49.607Z,82.50
2017-12-10T10:46:17.893Z,82.60
2017-12-10T10:48:46.193Z,82.90
2017-12-10T10:51:13.709Z,82.80
2017-12-10T10:53:41.257Z,83.20
2017-12-10T10:56:09.545Z,83.30
2017-12-10T10:58:37.829Z,83.60
2017-12-10T11:01:06.136Z,83.50
2017-12-10T11:03:34.415Z,83.40
2017-12-10T11:06:02.722Z,83.70
2017-12-10T11:08:31.004Z,84.00
2017-12-10T11:10:59.318Z,84.20
2017-12-10T11:13:27.638Z,84.60
2017-12-10T11:15:55.925Z,84.90
2017-12-10T11:18:24.219Z,84.70
2017-12-10T11:20:52.496Z,84.90
2017-12-10T11:23:20.889Z,84.80
2017-12-10T11:25:49.380Z,84.40
2017-12-10T11:28:17.703Z,84.40
2017-12-10T11:30:45.979Z,83.90
2017-12-10T11:33:14.256Z,83.80
2017-12-10T11:35:42.585Z,83.90
2017-12-10T11:38:10.873Z,84.20
2017-12-10T11:40:39.172Z,84.70
2017-12-10T11:43:07.457Z,84.80
2017-12-10T11:45:35.772Z,84.70
2017-12-10T11:48:04.060Z,84.60
2017-12-10T11:50:32.357Z,84.30
2017-12-10T11:53:00.671Z,84.00
2017-12-10T11:55:28.951Z,83.70
2017-12-10T11:57:57.247Z,83.40
2017-12-10T12:00:25.524Z,83.10
2017-12-10T12:02:53.840Z,82.90
2017-12-10T12:05:22.115Z,82.20
2017-12-10T12:07:50.397Z,82.10
2017-12-10T12:10:18.708Z,82.10
2017-12-10T12:12:46.989Z,82.10
2017-12-10T12:15:15.296Z,82.30
2017-12-10T12:17:43.590Z,82.50
2017-12-10T12:20:11.909Z,82.70
2017-12-10T12:22:40.189Z,83.10
2017-12-10T12:25:08.476Z,83.50
2017-12-10T12:27:36.784Z,84.30
2017-12-10T12:30:05.065Z,84.40
2017-12-10T12:32:33.374Z,83.80
2017-12-10T12:35:01.651Z,82.30
2017-12-10T12:37:29.983Z,82.20
2017-12-10T12:39:58.280Z,81.70
2017-12-10T12:42:26.559Z,80.70
2017-12-10T12:44:54.864Z,80.50
2017-12-10T12:47:23.153Z,81.70
2017-12-10T12:49:51.461Z,81.30
2017-12-10T12:52:19.739Z,81.60
2017-12-10T12:54:48.039Z,81.20
2017-12-10T12:57:16.321Z,80.60
2017-12-10T12:59:43.876Z,80.60
2017-12-10T13:02:12.574Z,80.80
2017-12-10T13:04:40.889Z,81.10
2017-12-10T13:07:09.181Z,81.10
2017-12-10T13:09:37.464Z,81.40
2017-12-10T13:12:05.768Z,81.20
2017-12-10T13:14:33.283Z,81.10
2017-12-10T13:17:01.588Z,81.70
2017-12-10T13:19:29.872Z,82.20
2017-12-10T13:21:58.180Z,81.90
2017-12-10T13:24:26.460Z,81.30
2017-12-10T13:26:54.846Z,81.80
2017-12-10T13:29:23.130Z,81.60
2017-12-10T13:31:51.415Z,81.90
2017-12-10T13:34:19.723Z,82.20
2017-12-10T13:36:48.020Z,83.30
2017-12-10T13:39:16.320Z,82.70
2017-12-10T13:41:44.629Z,83.00
2017-12-10T13:44:12.936Z,83.30
2017-12-10T13:46:41.226Z,83.50
2017-12-10T13:49:09.552Z,83.60
2017-12-10T13:51:37.834Z,83.50
2017-12-10T13:54:06.116Z,83.70
2017-12-10T13:56:34.445Z,84.30
2017-12-10T13:59:02.720Z,84.50
2017-12-10T14:01:31.033Z,84.70
2017-12-10T14:03:59.315Z,84.90
2017-12-10T14:06:27.643Z,84.80
2017-12-10T14:08:55.953Z,85.20
2017-12-10T14:11:24.241Z,85.70
2017-12-10T14:13:52.549Z,85.90
2017-12-10T14:16:20.837Z,86.00
2017-12-10T14:18:49.136Z,86.10
2017-12-10T14:21:17.420Z,85.80
2017-12-10T14:23:45.736Z,85.70
2017-12-10T14:26:14.028Z,86.20
2017-12-10T14:28:42.316Z,86.10
2017-12-10T14:31:10.628Z,86.40
2017-12-10T14:33:38.921Z,86.50
2017-12-10T14:36:07.241Z,86.60
2017-12-10T14:38:35.582Z,86.60
2017-12-10T14:41:03.824Z,86.60
2017-12-10T14:43:32.136Z,86.80
2017-12-10T14:46:00.429Z,86.90
2017-12-10T14:48:29.201Z,87.00
2017-12-10T14:50:57.480Z,87.30
2017-12-10T14:53:25.804Z,87.20
2017-12-10T14:55:55.056Z,87.20
2017-12-10T14:58:22.611Z,87.20
2017-12-10T15:00:50.926Z,87.50
2017-12-10T15:03:19.212Z,87.70
2017-12-10T15:05:47.529Z,88.60
2017-12-10T15:08:15.816Z,87.70
2017-12-10T15:10:44.096Z,87.90
2017-12-10T15:13:12.398Z,88.40
2017-12-10T15:15:40.692Z,88.90
2017-12-10T15:18:09.012Z,89.00
2017-12-10T15:20:37.298Z,88.90
2017-12-10T15:23:06.537Z,88.80
2017-12-10T15:25:34.853Z,88.60
2017-12-10T15:28:03.127Z,88.90
2017-12-10T15:30:31.445Z,89.10
2017-12-10T15:32:59.733Z,89.00
2017-12-10T15:35:28.032Z,89.00
2017-12-10T15:37:59.863Z,88.90
2017-12-10T15:40:28.148Z,88.70
2017-12-10T15:42:56.466Z,88.60
2017-12-10T15:45:24.756Z,88.80
2017-12-10T15:47:53.040Z,88.60
2017-12-10T15:50:21.343Z,88.00
2017-12-10T15:52:49.623Z,88.10
2017-12-10T15:55:17.944Z,88.30
2017-12-10T15:57:46.240Z,88.70
2017-12-10T16:00:13.765Z,89.20
2017-12-10T16:02:42.064Z,88.90
2017-12-10T16:05:10.356Z,88.80
2017-12-10T16:07:38.671Z,89.00
2017-12-10T16:10:06.952Z,88.90
2017-12-10T16:12:35.238Z,88.80
2017-12-10T16:15:03.544Z,88.40
2017-12-10T16:17:31.824Z,88.20
2017-12-10T16:20:00.148Z,88.10
2017-12-10T16:22:28.432Z,87.70
2017-12-10T16:24:56.722Z,87.10
2017-12-10T16:27:25.020Z,86.90
2017-12-10T16:29:53.312Z,86.40
2017-12-10T16:32:21.637Z,86.40
2017-12-10T16:34:49.915Z,86.20
2017-12-10T16:37:18.201Z,86.70
2017-12-10T16:39:46.509Z,86.50
2017-12-10T16:42:14.796Z,86.30
2017-12-10T16:44:43.108Z,85.90
2017-12-10T16:47:11.392Z,85.90
2017-12-10T16:49:39.718Z,85.50
2017-12-10T16:52:08.009Z,85.40
2017-12-10T16:54:36.288Z,85.30
2017-12-10T16:57:04.588Z,85.40
2017-12-10T16:59:32.872Z,85.70
2017-12-10T17:02:01.182Z,85.70
2017-12-10T17:04:29.474Z,85.60
2017-12-10T17:06:57.827Z,85.70
2017-12-10T17:09:26.113Z,85.60
2017-12-10T17:11:54.416Z,85.10
2017-12-10T17:14:22.729Z,84.90
2017-12-10T17:16:51.028Z,84.90
2017-12-10T17:19:19.366Z,85.00
2017-12-10T17:21:47.716Z,85.60
2017-12-10T17:24:15.264Z,84.70
2017-12-10T17:26:43.560Z,85.10
2017-12-10T17:29:11.855Z,85.30
2017-12-10T17:31:40.164Z,85.40
2017-12-10T17:34:08.480Z,85.30
2017-12-10T17:36:36.858Z,85.40
2017-12-10T17:39:05.148Z,86.30
2017-12-10T17:41:33.464Z,86.10
2017-12-10T17:44:01.776Z,86.10
2017-12-10T17:46:30.102Z,86.40
2017-12-10T17:48:58.452Z,86.60
2017-12-10T17:51:26.732Z,86.80
2017-12-10T17:53:55.071Z,87.20
2017-12-10T17:56:23.358Z,87.30
2017-12-10T17:58:51.649Z,87.30
2017-12-10T18:01:19.983Z,87.50
2017-12-10T18:03:48.299Z,87.40
2017-12-10T18:06:16.618Z,87.40
2017-12-10T18:08:44.139Z,87.40
2017-12-10T18:11:12.480Z,87.70
2017-12-10T18:13:40.768Z,88.10
2017-12-10T18:16:09.064Z,88.00
2017-12-10T18:18:37.368Z,88.50
2017-12-10T18:21:05.656Z,88.90
2017-12-10T18:23:33.957Z,89.00
2017-12-10T18:26:02.249Z,89.20
2017-12-10T18:28:30.568Z,88.90
2017-12-10T18:30:58.941Z,89.10
2017-12-10T18:33:27.207Z,89.30
2017-12-10T18:35:55.557Z,89.20
2017-12-10T18:38:23.860Z,89.00
2017-12-10T18:40:52.188Z,88.90
2017-12-10T18:43:20.545Z,89.30
2017-12-10T18:45:48.907Z,88.90
2017-12-10T18:48:17.207Z,89.20
2017-12-10T18:50:46.096Z,89.00
2017-12-10T18:53:14.463Z,88.80
2017-12-10T18:55:42.752Z,88.60
2017-12-10T18:58:11.067Z,88.60
2017-12-10T19:00:39.354Z,88.70
2017-12-10T19:03:07.681Z,88.80
2017-12-10T19:05:35.960Z,88.70
2017-12-10T19:08:04.252Z,88.90
2017-12-10T19:10:32.558Z,89.00
2017-12-10T19:13:00.837Z,88.80
2017-12-10T19:15:29.136Z,88.80
2017-12-10T19:17:57.415Z,88.70
2017-12-10T19:20:25.740Z,88.30
2017-12-10T19:22:54.038Z,87.90
2017-12-10T19:25:22.380Z,87.50
2017-12-10T19:27:50.761Z,87.40
2017-12-10T19:30:19.043Z,87.20
2017-12-10T19:32:47.344Z,87.20
2017-12-10T19:35:15.658Z,86.60
2017-12-10T19:37:43.992Z,86.60
2017-12-10T19:40:14.224Z,86.60
2017-12-10T19:42:42.505Z,86.30
2017-12-10T19:45:10.823Z,86.10
2017-12-10T19:47:39.108Z,86.00
2017-12-10T19:50:07.429Z,85.90
2017-12-10T19:52:35.709Z,85.50
2017-12-10T19:55:04.056Z,85.50
2017-12-10T19:57:32.340Z,85.50
2017-12-10T19:59:59.864Z,85.60
2017-12-10T20:02:28.450Z,85.20
2017-12-10T20:04:56.732Z,85.10
2017-12-10T20:07:25.032Z,85.00
2017-12-10T20:09:53.313Z,84.60
2017-12-10T20:12:21.656Z,84.50
2017-12-10T20:14:49.952Z,84.40
2017-12-10T20:17:18.249Z,84.30
2017-12-10T20:19:46.552Z,84.10
2017-12-10T20:22:14.839Z,83.90
2017-12-10T20:24:43.160Z,84.00
2017-12-10T20:27:11.460Z,83.40
2017-12-10T20:29:39.776Z,83.30
2017-12-10T20:32:08.068Z,83.10
2017-12-10T20:34:36.404Z,82.80
2017-12-10T20:37:04.695Z,82.60
2017-12-10T20:39:32.977Z,82.60
2017-12-10T20:42:01.284Z,82.30
2017-12-10T20:44:29.562Z,82.40
2017-12-10T20:46:57.871Z,82.70
2017-12-10T20:49:26.148Z,82.70
2017-12-10T20:51:54.464Z,82.70
2017-12-10T20:54:22.799Z,83.00
2017-12-10T20:56:51.117Z,83.20
2017-12-10T20:59:19.427Z,83.30
2017-12-10T21:01:47.733Z,83.10
2017-12-10T21:04:16.056Z,83.20
2017-12-10T21:06:44.353Z,83.30
2017-12-10T21:09:12.648Z,83.40
2017-12-10T21:11:40.936Z,83.70
2017-12-10T21:14:09.249Z,83.30
2017-12-10T21:16:37.558Z,83.20
2017-12-10T21:19:05.900Z,83.20
2017-12-10T21:21:34.230Z,83.00
2017-12-10T21:24:02.544Z,83.50
2017-12-10T21:26:30.863Z,82.70
2017-12-10T21:28:59.167Z,82.40
2017-12-10T21:31:27.472Z,82.30
2017-12-10T21:33:55.760Z,82.20
2017-12-10T21:36:24.100Z,81.90
2017-12-10T21:38:52.380Z,82.00
2017-12-10T21:41:20.720Z,82.20
2017-12-10T21:43:49.052Z,82.20
2017-12-10T21:46:17.340Z,82.50
2017-12-10T21:48:45.664Z,81.90
2017-12-10T21:51:17.396Z,81.80
2017-12-10T21:53:45.714Z,81.70
2017-12-10T21:56:14.003Z,81.60
2017-12-10T21:58:42.290Z,82.00
2017-12-10T22:01:10.595Z,82.50
2017-12-10T22:03:43.840Z,82.90
2017-12-10T22:06:12.151Z,83.10
2017-12-10T22:08:40.428Z,83.50
2017-12-10T22:11:08.748Z,83.70
2017-12-10T22:13:37.036Z,83.90
2017-12-10T22:16:05.367Z,84.10
2017-12-10T22:18:33.641Z,84.20
2017-12-10T22:21:01.929Z,83.80
2017-12-10T22:23:30.265Z,83.60
2017-12-10T22:25:58.556Z,83.30
2017-12-10T22:28:26.844Z,83.00
2017-12-10T22:30:55.152Z,82.70
2017-12-10T22:33:23.431Z,82.80
2017-12-10T22:35:51.748Z,82.80
2017-12-10T22:38:20.038Z,82.40
2017-12-10T22:40:48.316Z,81.80
2017-12-10T22:43:16.619Z,81.90
2017-12-10T22:45:44.908Z,82.00
2017-12-10T22:48:13.211Z,81.90
2017-12-10T22:50:41.501Z,82.00
2017-12-10T22:53:09.812Z,82.10
2017-12-10T22:55:38.119Z,82.30
2017-12-10T22:58:06.428Z,82.60
2017-12-10T23:00:34.713Z,83.10
2017-12-10T23:03:02.997Z,83.70
2017-12-10T23:05:31.313Z,84.20
2017-12-10T23:07:59.592Z,85.70
2017-12-10T23:10:27.900Z,85.20
2017-12-10T23:12:56.200Z,85.60
2017-12-10T23:15:24.504Z,85.60
2017-12-10T23:17:52.784Z,85.80
2017-12-10T23:20:25.471Z,85.90
2017-12-10T23:22:53.748Z,85.70
2017-12-10T23:25:22.063Z,85.50
2017-12-10T23:27:50.344Z,85.30
2017-12-10T23:30:17.857Z,85.40
2017-12-10T23:32:46.156Z,85.00
2017-12-10T23:35:14.440Z,84.80
2017-12-10T23:37:42.744Z,84.30
2017-12-10T23:40:11.041Z,84.10
2017-12-10T23:42:39.365Z,83.70
2017-12-10T23:45:07.656Z,84.20
2017-12-10T23:47:35.940Z,83.80
2017-12-10T23:50:04.249Z,83.90
2017-12-10T23:52:32.528Z,84.10
2017-12-10T23:55:00.836Z,84.30
2017-12-10T23:57:29.125Z,84.20
2017-12-10T23:59:57.457Z,84.60
